ウィーン国際空港の過去48時間の天気

ウィーン国際空港 (Wien / Schwechat-Flughafen)

現在時刻: 9/16 05:11 CEST (9/16 03:11 UTC) 以下の時間は現地時間です。

過去48時間のMETAR気象情報
時間 風向 風速(m/s) 視程 気温(℃) 湿度(%) 気圧(hPa) 天気現象
16 04:50 3 10km以上 13 94 1019
16 04:20 3 10km以上 13 94 1019
16 03:50 3 10km以上 13 94 1019
16 03:20 3 10km以上 13 94 1020
16 02:50 3 10km以上 13 94 1020
16 02:20 3 10km以上 14 88 1020
16 01:50 3 10km以上 14 94 1020
16 01:20 3 10km以上 14 88 1020
16 00:50 西 2 10km以上 15 82 1020
16 00:20 南東 2 10km以上 15 88 1020
15 23:50 西南西 3 10km以上 17 83 1020
15 23:20 西南西 3 10km以上 18 77 1020
15 22:50 南西 2 10km以上 18 77 1020
15 22:20 不定 1 10km以上 17 77 1020
15 21:50 2 10km以上 18 73 1020
15 21:20 不定 1 10km以上 18 77 1020
15 20:50 東南東 2 10km以上 19 73 1020
15 20:20 2 10km以上 19 68 1020
15 19:50 南東 2 10km以上 19 68 1021
15 19:20 南南東 3 10km以上 20 64 1020
15 18:50 南南東 3 10km以上 21 60 1021
15 18:20 南東 4 10km以上 23 53 1021
15 17:50 南南東 4 10km以上 23 57 1021
15 17:20 南南東 3 10km以上 24 50 1022
15 16:50 南南東 2 10km以上 24 50 1022
15 16:20 南東 2 10km以上 24 50 1023
15 15:50 南南東 3 10km以上 24 47 1023
15 15:20 南南東 3 10km以上 23 50 1023
15 14:50 南東 3 10km以上 23 50 1024
15 14:20 3 10km以上 23 53 1024
15 13:50 南南東 3 10km以上 22 50 1025
15 13:20 南東 3 10km以上 21 53 1025
15 12:50 南南東 3 10km以上 21 53 1025
15 12:20 南東 3 10km以上 20 49 1026
15 11:50 南南東 3 10km以上 20 49 1026
15 11:20 東南東 3 10km以上 19 49 1026
15 10:50 南東 4 10km以上 18 56 1027
15 10:20 南東 4 10km以上 17 59 1027
15 09:50 東南東 4 10km以上 16 59 1027
15 09:20 東南東 3 10km以上 15 63 1027
15 08:50 不定 1 10km以上 14 77 1028
15 08:20 2 10km以上 12 82 1028
15 07:50 南南東 2 10km以上 11 87 1028
15 07:20 2 10km以上 9 93 1028
15 06:50 南南東 2 10km以上 9 93 1028
15 06:20 不定 1 10km以上 9 93 1028
15 05:50 南東 2 10km以上 9 93 1028
15 05:20 不定 1 10km以上 9 93 1028
15 04:50 南東 1 10km以上 9 93 1028
15 04:20 不定 1 10km以上 9 93 1028
15 03:50 南東 3 10km以上 10 87 1028
15 03:20 不定 1 10km以上 10 87 1028
15 02:50 南東 2 10km以上 10 87 1029
15 02:20 不定 1 10km以上 11 82 1029
15 01:50 不定 1 10km以上 11 87 1029
15 01:20 西南西 2 10km以上 12 77 1029
15 00:50 北北西 2 10km以上 12 77 1030
15 00:20 北北西 2 10km以上 12 82 1030
14 23:50 北北西 2 10km以上 12 77 1030
14 23:20 2 10km以上 13 77 1030
14 22:50 北北東 1 10km以上 14 72 1030
14 22:20 北東 2 10km以上 15 67 1030
14 21:50 北東 2 10km以上 15 67 1030
14 21:20 東北東 1 10km以上 15 72 1030
14 20:50 北北東 2 10km以上 16 68 1030
14 20:20 東北東 2 10km以上 17 63 1030
14 19:50 北東 2 10km以上 17 63 1029
14 19:20 北東 3 10km以上 18 60 1029
14 18:50 2 10km以上 19 60 1029
14 18:20 2 10km以上 20 53 1029
14 17:50 3 10km以上 20 56 1029
14 17:20 北北西 3 10km以上 21 49 1030
14 16:50 4 10km以上 21 49 1030
14 16:20 4 10km以上 21 53 1030
14 15:50 北北西 4 10km以上 21 53 1030
14 15:20 5 10km以上 21 53 1031
14 14:50 5 10km以上 21 53 1031
14 14:20 5 10km以上 21 53 1031
14 13:50 北北西 5 10km以上 21 49 1031
14 13:20 4 10km以上 20 53 1031
14 12:50 北北西 4 10km以上 20 56 1032
14 12:20 北北西 5 10km以上 20 56 1032
14 11:50 北北西 5 10km以上 20 56 1032
14 11:20 4 10km以上 19 64 1033
14 10:50 5 10km以上 19 60 1033
14 10:20 5 10km以上 18 68 1033
14 09:50 4 10km以上 17 72 1033
14 09:20 4 10km以上 17 72 1032
14 08:50 5 10km以上 17 72 1032
14 08:20 北北西 5 10km以上 17 72 1032
14 07:50 北北西 4 10km以上 16 77 1032
14 07:20 北西 4 10km以上 15 82 1031
14 06:50 北北西 5 10km以上 15 82 1031
14 06:20 北北西 4 10km以上 16 82 1031
14 05:50 北北西 4 10km以上 16 82 1031
14 05:20 3 10km以上 17 83 1030
LOWW 160250Z 17005KT CAVOK 13/12 Q1019 NOSIG
LOWW 160220Z 17005KT CAVOK 13/12 Q1019 NOSIG
LOWW 160150Z 17005KT CAVOK 13/12 Q1019 TEMPO 28007KT
LOWW 160120Z 17005KT CAVOK 13/12 Q1020 TEMPO 28007KT
LOWW 160050Z 17005KT CAVOK 13/12 Q1020 TEMPO 28007KT
LOWW 160020Z 17005KT CAVOK 14/12 Q1020 TEMPO 28007KT
LOWW 152350Z 19005KT CAVOK 14/13 Q1020 TEMPO 28007KT
LOWW 152320Z 17005KT CAVOK 14/12 Q1020 TEMPO 28007KT
LOWW 152250Z 28003KT 260V360 CAVOK 15/12 Q1020 TEMPO 28007KT
LOWW 152220Z 14003KT 100V170 CAVOK 15/13 Q1020 TEMPO 28007KT
LOWW 152150Z 24006KT CAVOK 17/14 Q1020 TEMPO 28008KT
LOWW 152120Z 24005KT CAVOK 18/14 Q1020 NOSIG
LOWW 152050Z 23004KT CAVOK 18/14 Q1020 NOSIG
LOWW 152020Z VRB02KT CAVOK 17/13 Q1020 NOSIG
LOWW 151950Z 18004KT CAVOK 18/13 Q1020 NOSIG
LOWW 151920Z VRB02KT CAVOK 18/14 Q1020 NOSIG
LOWW 151850Z 11004KT CAVOK 19/14 Q1020 NOSIG
LOWW 151820Z 09003KT CAVOK 19/13 Q1020 NOSIG
LOWW 151750Z 13003KT CAVOK 19/13 Q1021 NOSIG
LOWW 151720Z 16005KT CAVOK 20/13 Q1020 NOSIG
LOWW 151650Z 15006KT CAVOK 21/13 Q1021 NOSIG
LOWW 151620Z 14008KT CAVOK 23/13 Q1021 BECMG 20004KT
LOWW 151550Z 15008KT CAVOK 23/14 Q1021 NOSIG
LOWW 151520Z 15006KT 110V170 CAVOK 24/13 Q1022 NOSIG
LOWW 151450Z 15004KT 100V200 CAVOK 24/13 Q1022 NOSIG
LOWW 151420Z 13004KT 060V200 CAVOK 24/13 Q1023 NOSIG
LOWW 151350Z 15006KT 100V190 CAVOK 24/12 Q1023 NOSIG
LOWW 151320Z 15006KT 090V190 CAVOK 23/12 Q1023 NOSIG
LOWW 151250Z 13005KT 060V180 CAVOK 23/12 Q1024 NOSIG
LOWW 151220Z 17005KT 050V210 CAVOK 23/13 Q1024 NOSIG
LOWW 151150Z 16005KT 100V200 CAVOK 22/11 Q1025 NOSIG
LOWW 151120Z 14006KT 100V240 9999 FEW050 21/11 Q1025 NOSIG
LOWW 151050Z 15005KT 070V220 CAVOK 21/11 Q1025 NOSIG
LOWW 151020Z 13006KT 080V200 CAVOK 20/09 Q1026 NOSIG
LOWW 150950Z 16006KT 110V190 CAVOK 20/09 Q1026 NOSIG
LOWW 150920Z 12006KT 070V170 CAVOK 19/08 Q1026 NOSIG
LOWW 150850Z 13007KT 090V160 CAVOK 18/09 Q1027 NOSIG
LOWW 150820Z 13008KT 100V160 CAVOK 17/09 Q1027 NOSIG
LOWW 150750Z 12007KT 100V160 CAVOK 16/08 Q1027 NOSIG
LOWW 150720Z 11006KT 080V140 CAVOK 15/08 Q1027 NOSIG
LOWW 150650Z VRB02KT CAVOK 14/10 Q1028 NOSIG
LOWW 150620Z 10003KT 9999 FEW050 12/09 Q1028 NOSIG
LOWW 150550Z 15003KT 110V180 9999 FEW050 11/09 Q1028 NOSIG
LOWW 150520Z 17003KT 9999 FEW050 09/08 Q1028 NOSIG
LOWW 150450Z 15003KT 9999 FEW050 09/08 Q1028 NOSIG
LOWW 150420Z VRB02KT 9999 FEW050 09/08 Q1028 NOSIG
LOWW 150350Z 14003KT 110V240 9999 FEW050 09/08 Q1028 NOSIG
LOWW 150320Z VRB02KT 9999 FEW045 09/08 Q1028 NOSIG
LOWW 150250Z 13002KT 9999 FEW045 09/08 Q1028 NOSIG
LOWW 150220Z VRB01KT 9999 FEW050 09/08 Q1028 NOSIG
LOWW 150150Z 14005KT 9999 FEW050 10/08 Q1028 NOSIG
LOWW 150120Z VRB01KT CAVOK 10/08 Q1028 NOSIG
LOWW 150050Z 13003KT CAVOK 10/08 Q1029 NOSIG
LOWW 150020Z VRB02KT CAVOK 11/08 Q1029 NOSIG
LOWW 142350Z VRB02KT CAVOK 11/09 Q1029 NOSIG
LOWW 142320Z 24003KT CAVOK 12/08 Q1029 NOSIG
LOWW 142250Z 34004KT CAVOK 12/08 Q1030 NOSIG
LOWW 142220Z 33003KT CAVOK 12/09 Q1030 NOSIG
LOWW 142150Z 33004KT CAVOK 12/08 Q1030 NOSIG
LOWW 142120Z 36003KT CAVOK 13/09 Q1030 NOSIG
LOWW 142050Z 03002KT CAVOK 14/09 Q1030 NOSIG
LOWW 142020Z 05004KT CAVOK 15/09 Q1030 NOSIG
LOWW 141950Z 04004KT CAVOK 15/09 Q1030 NOSIG
LOWW 141920Z 06002KT CAVOK 15/10 Q1030 NOSIG
LOWW 141850Z 03004KT CAVOK 16/10 Q1030 NOSIG
LOWW 141820Z 07003KT CAVOK 17/10 Q1030 NOSIG
LOWW 141750Z 05004KT CAVOK 17/10 Q1029 NOSIG
LOWW 141720Z 05005KT 9999 FEW050 SCT300 18/10 Q1029 NOSIG
LOWW 141650Z 36004KT 9999 FEW050 SCT300 19/11 Q1029 NOSIG
LOWW 141620Z 36004KT 9999 FEW050 SCT300 20/10 Q1029 NOSIG
LOWW 141550Z 01005KT 340V040 9999 FEW047 BKN300 20/11 Q1029 NOSIG
LOWW 141520Z 34006KT 310V020 9999 FEW047 BKN300 21/10 Q1030 NOSIG
LOWW 141450Z 35007KT 320V020 9999 FEW047 BKN300 21/10 Q1030 NOSIG
LOWW 141420Z 36008KT 330V040 9999 FEW042 BKN300 21/11 Q1030 NOSIG
LOWW 141350Z 34007KT 300V020 9999 FEW042 BKN300 21/11 Q1030 NOSIG
LOWW 141320Z 36009KT 330V030 9999 FEW042 BKN300 21/11 Q1031 NOSIG
LOWW 141250Z 35009KT 9999 FEW040 BKN300 21/11 Q1031 NOSIG
LOWW 141220Z 36009KT 310V070 9999 FEW040 BKN300 21/11 Q1031 NOSIG
LOWW 141150Z 33009KT 9999 FEW038 BKN300 21/10 Q1031 NOSIG
LOWW 141120Z 36008KT 320V070 9999 FEW038 BKN300 20/10 Q1031 NOSIG
LOWW 141050Z 34008KT 9999 FEW035 BKN300 20/11 Q1032 NOSIG
LOWW 141020Z 33010KT 9999 FEW035 BKN300 20/11 Q1032 NOSIG
LOWW 140950Z 34009KT 9999 FEW035 BKN300 20/11 Q1032 NOSIG
LOWW 140920Z 36007KT 340V040 9999 FEW030 SCT060 BKN300 19/12 Q1033 NOSIG
LOWW 140850Z 36010KT 9999 FEW030 BKN060 19/11 Q1033 NOSIG
LOWW 140820Z 36010KT 9999 FEW038 SCT058 18/12 Q1033 NOSIG
LOWW 140750Z 36007KT 9999 FEW038 BKN060 17/12 Q1033 NOSIG
LOWW 140720Z 35007KT 9999 SCT038 BKN060 17/12 Q1032 NOSIG
LOWW 140650Z 35009KT CAVOK 17/12 Q1032 NOSIG
LOWW 140620Z 34009KT 9999 FEW038 SCT055 17/12 Q1032 NOSIG
LOWW 140550Z 34008KT 9999 SCT038 SCT080 16/12 Q1032 NOSIG
LOWW 140520Z 32007KT 9999 SCT037 BKN080 15/12 Q1031 NOSIG
LOWW 140450Z 34009KT CAVOK 15/12 Q1031 NOSIG
LOWW 140420Z 34008KT CAVOK 16/13 Q1031 NOSIG
LOWW 140350Z 34007KT 9999 SCT046 BKN075 16/13 Q1031 NOSIG
LOWW 140320Z 35006KT 9999 BKN046 17/14 Q1030 NOSIG